createdAt,value
2023-03-16T00:00:18.976Z,0.42
2023-03-16T00:10:20.391Z,0.36
2023-03-16T00:20:22.686Z,0.08
2023-03-16T00:30:23.968Z,-0.01
2023-03-16T00:40:25.192Z,-0.18
2023-03-16T00:50:27.179Z,-0.35
2023-03-16T01:00:29.141Z,-0.35
2023-03-16T01:10:30.834Z,-0.31
2023-03-16T01:20:33.521Z,-0.40
2023-03-16T01:30:35.660Z,-0.31
2023-03-16T01:40:37.915Z,-0.24
2023-03-16T01:50:39.159Z,-0.47
2023-03-16T02:00:41.841Z,-0.49
2023-03-16T02:10:43.067Z,-0.40
2023-03-16T02:20:44.336Z,-0.45
2023-03-16T02:30:45.551Z,-0.57
2023-03-16T02:40:46.843Z,-0.70
2023-03-16T02:50:48.113Z,-0.61
2023-03-16T03:00:49.388Z,-0.49
2023-03-16T03:10:50.651Z,-0.65
2023-03-16T03:20:51.835Z,-0.59
2023-03-16T03:30:53.052Z,-0.47
2023-03-16T03:40:54.237Z,-0.59
2023-03-16T03:50:55.418Z,-0.64
2023-03-16T04:00:56.605Z,-0.60
2023-03-16T04:10:57.953Z,-0.67
2023-03-16T04:20:59.176Z,-0.66
2023-03-16T04:31:00.422Z,-0.82
2023-03-16T04:41:01.633Z,-0.98
2023-03-16T04:51:03.705Z,-1.00
2023-03-16T05:01:04.931Z,-1.06
2023-03-16T05:11:06.270Z,-1.14
2023-03-16T05:21:07.527Z,-1.03
2023-03-16T05:31:09.826Z,-1.13
2023-03-16T05:41:11.063Z,-1.10
2023-03-16T05:51:14.184Z,-1.07
2023-03-16T06:01:15.655Z,-0.95
2023-03-16T06:11:16.892Z,-0.82
2023-03-16T06:21:18.251Z,-0.62
2023-03-16T06:31:19.685Z,-0.48
2023-03-16T06:41:21.223Z,-0.28
2023-03-16T06:51:22.468Z,-0.02
2023-03-16T07:01:23.794Z,0.21
2023-03-16T07:11:25.234Z,0.46
2023-03-16T07:21:26.454Z,0.66
2023-03-16T07:31:27.709Z,0.83
2023-03-16T07:41:30.111Z,1.21
2023-03-16T07:51:32.875Z,1.68
2023-03-16T08:01:34.374Z,2.04
2023-03-16T08:11:35.662Z,2.29
2023-03-16T08:21:49.749Z,2.57
2023-03-16T08:31:58.165Z,2.97
2023-03-16T08:41:59.388Z,3.41
2023-03-16T08:52:00.719Z,3.73
2023-03-16T09:02:02.112Z,4.09
2023-03-16T09:12:04.609Z,4.48
2023-03-16T09:22:06.755Z,5.02
2023-03-16T09:32:07.970Z,5.39
2023-03-16T09:42:09.396Z,5.94
2023-03-16T09:52:10.618Z,6.17
2023-03-16T10:02:11.915Z,6.47
2023-03-16T10:12:13.710Z,6.61
2023-03-16T10:22:14.909Z,7.04
2023-03-16T10:32:16.594Z,7.29
2023-03-16T10:42:17.913Z,7.76
2023-03-16T10:52:19.732Z,8.52
2023-03-16T11:02:22.629Z,9.28
2023-03-16T11:12:24.133Z,9.65
2023-03-16T11:22:25.399Z,9.81
2023-03-16T11:32:26.751Z,9.41
2023-03-16T11:42:28.418Z,9.51
2023-03-16T11:52:29.626Z,10.05
2023-03-16T12:02:30.918Z,9.93
2023-03-16T12:12:32.296Z,10.02
2023-03-16T12:22:33.634Z,10.40
2023-03-16T12:32:34.918Z,10.28
2023-03-16T12:42:36.144Z,10.59
2023-03-16T12:52:37.367Z,10.66
2023-03-16T13:02:38.614Z,10.92
2023-03-16T13:12:41.922Z,11.11
2023-03-16T13:22:43.848Z,10.96
2023-03-16T13:32:45.113Z,11.41
2023-03-16T13:42:46.401Z,11.35
2023-03-16T13:52:47.709Z,11.66
2023-03-16T14:02:49.139Z,12.18
2023-03-16T14:12:50.431Z,12.32
2023-03-16T14:22:52.149Z,12.57
2023-03-16T14:32:53.424Z,12.70
2023-03-16T14:42:54.692Z,12.94
2023-03-16T14:52:55.984Z,13.03
2023-03-16T15:02:57.685Z,12.80
2023-03-16T15:13:13.055Z,12.81
2023-03-16T15:23:14.432Z,12.82
2023-03-16T15:33:16.341Z,12.72
2023-03-16T15:43:17.877Z,12.69
2023-03-16T15:53:29.916Z,12.52
2023-03-16T16:03:33.667Z,12.36
2023-03-16T16:13:44.089Z,11.98
2023-03-16T16:23:46.468Z,11.52
2023-03-16T16:33:47.712Z,11.45
2023-03-16T16:43:49.012Z,11.49
2023-03-16T16:53:50.336Z,11.18
2023-03-16T17:03:51.887Z,11.14
2023-03-16T17:13:53.866Z,10.83
2023-03-16T17:23:55.145Z,10.68
2023-03-16T17:33:57.389Z,10.44
2023-03-16T17:44:01.594Z,10.15
2023-03-16T17:54:04.154Z,9.88
2023-03-16T18:04:05.932Z,9.71
2023-03-16T18:14:07.416Z,9.55
2023-03-16T18:24:09.347Z,9.33
2023-03-16T18:34:11.456Z,9.05
2023-03-16T18:44:12.680Z,8.99
2023-03-16T18:54:14.214Z,8.84
2023-03-16T19:04:15.436Z,8.58
2023-03-16T19:14:17.394Z,8.36
2023-03-16T19:24:18.641Z,8.13
2023-03-16T19:34:19.873Z,7.87
2023-03-16T19:44:21.268Z,7.65
2023-03-16T19:54:22.583Z,7.52
2023-03-16T20:04:24.156Z,7.26
2023-03-16T20:14:25.684Z,7.02
2023-03-16T20:24:28.786Z,6.81
2023-03-16T20:34:30.715Z,6.53
2023-03-16T20:44:32.336Z,6.37
2023-03-16T20:54:33.550Z,6.19
2023-03-16T21:04:34.878Z,6.17
2023-03-16T21:14:36.340Z,6.02
2023-03-16T21:24:37.583Z,5.85
2023-03-16T21:34:39.251Z,5.74
2023-03-16T21:44:40.524Z,5.52
2023-03-16T21:54:42.018Z,5.53
2023-03-16T22:04:45.676Z,5.23
2023-03-16T22:14:47.694Z,5.24
2023-03-16T22:24:48.923Z,5.10
2023-03-16T22:34:50.140Z,5.00
2023-03-16T22:44:51.374Z,4.99
2023-03-16T22:54:52.603Z,4.81
2023-03-16T23:04:53.844Z,4.69
2023-03-16T23:14:56.188Z,4.57
2023-03-16T23:24:57.618Z,4.43
2023-03-16T23:34:59.413Z,4.33
2023-03-16T23:45:01.207Z,4.29
2023-03-16T23:55:02.611Z,4.22
